Time;durP1;ratioP1;P1;durP2;ratioP2;P2;SDS_P1;SDS_P2;PMS_P1;PMS_P2;Temp;Humidity;BMP_temperature;BMP_pressure;BME280_temperature;BME280_humidity;BME280_pressure;Samples;Min_cycle;Max_cycle;Signal;HPM_P1;HPM_P2
2022/04/30 22:19:33;;;;;;;21.35;19.27;;;;;;;13.55;58.10;95707.13;5180521;23;20094;-73
2022/04/30 22:21:58;;;;;;;20.92;18.80;;;;;;;14.07;56.99;95697.38;4969040;28;20495;-73
2022/04/30 22:24:24;;;;;;;22.75;20.55;;;;;;;13.54;58.44;95703.66;4969205;28;20504;-74
2022/04/30 22:26:52;;;;;;;20.90;18.98;;;;;;;13.97;57.67;95735.09;4970350;28;20023;-76
2022/04/30 22:29:18;;;;;;;22.58;20.38;;;;;;;13.67;58.68;95742.09;4967678;28;20035;-75
2022/04/30 22:31:44;;;;;;;24.77;20.88;;;;;;;13.45;58.83;95713.53;4955671;28;20034;-75
2022/04/30 22:34:09;;;;;;;21.63;19.45;;;;;;;14.15;56.97;95742.09;4973906;28;20027;-75
2022/04/30 22:36:35;;;;;;;22.65;20.58;;;;;;;14.34;56.25;95749.06;4973185;28;20538;-76
2022/04/30 22:39:00;;;;;;;22.75;20.58;;;;;;;14.64;55.77;95742.81;4955558;28;20034;-75
2022/04/30 22:44:10;;;;;;;22.95;20.73;;;;;;;14.13;56.27;95719.44;4972667;28;20105;-75
2022/04/30 22:46:44;;;;;;;23.58;21.20;;;;;;;14.89;54.62;95724.38;4972957;28;20478;-74
2022/04/30 22:49:12;;;;;;;23.65;21.38;;;;;;;14.76;54.65;95732.25;4972280;28;20054;-75
2022/04/30 22:51:38;;;;;;;23.88;21.67;;;;;;;14.88;54.90;95742.34;4973028;28;20019;-74
2022/04/30 22:54:04;;;;;;;22.20;19.98;;;;;;;15.22;53.64;95720.06;4973332;28;20086;-74
2022/04/30 22:56:29;;;;;;;25.23;21.42;;;;;;;15.01;54.35;95713.81;4973260;28;20034;-74
2022/04/30 22:58:55;;;;;;;24.17;21.88;;;;;;;14.94;53.93;95730.34;4971085;28;20026;-74
2022/04/30 23:01:22;;;;;;;23.75;21.55;;;;;;;14.86;54.33;95723.13;4972470;28;20623;-74
2022/04/30 23:03:47;;;;;;;24.98;22.42;;;;;;;15.02;54.35;95731.47;4973989;28;20419;-74
2022/04/30 23:06:13;;;;;;;24.30;22.05;;;;;;;14.86;54.29;95700.91;4973866;28;20074;-75
2022/04/30 23:08:38;;;;;;;26.23;23.63;;;;;;;14.50;54.27;95670.69;4973302;28;20030;-74
2022/04/30 23:11:03;;;;;;;25.42;23.23;;;;;;;15.33;53.58;95737.38;4972729;28;20090;-75
2022/04/30 23:13:29;;;;;;;25.67;23.30;;;;;;;14.60;54.06;95692.91;4956446;28;20118;-74
2022/04/30 23:15:56;;;;;;;25.73;23.25;;;;;;;14.39;55.51;95706.09;4972828;28;20082;-75
2022/04/30 23:18:22;;;;;;;23.25;20.98;;;;;;;14.91;54.61;95746.28;4973012;28;20085;-75
2022/04/30 23:20:47;;;;;;;19.45;15.75;;;;;;;14.09;56.43;95732.63;4973346;28;20095;-74
2022/04/30 23:23:13;;;;;;;41.60;27.98;;;;;;;14.81;55.23;95736.69;4973549;28;20485;-74
2022/04/30 23:25:39;;;;;;;30.80;26.88;;;;;;;14.55;55.91;95724.06;4971564;28;20026;-74
2022/04/30 23:28:05;;;;;;;23.75;18.48;;;;;;;14.74;55.04;95726.44;4971019;28;20461;-74
2022/04/30 23:30:30;;;;;;;56.45;40.53;;;;;;;14.44;54.85;95661.22;4972670;28;20520;-75
2022/04/30 23:32:56;;;;;;;437.95;406.17;;;;;;;15.28;54.12;95723.38;4973209;28;20110;-74
2022/04/30 23:35:22;;;;;;;85.85;48.13;;;;;;;15.01;54.41;95722.63;4973306;28;20023;-74
2022/04/30 23:37:49;;;;;;;229.63;141.25;;;;;;;14.76;55.11;95731.47;4973142;28;20513;-74
2022/04/30 23:40:14;;;;;;;36.35;29.60;;;;;;;14.38;56.32;95740.06;4972710;28;20030;-74
2022/04/30 23:42:40;;;;;;;181.55;143.13;;;;;;;14.20;56.58;95741.16;4955170;28;20023;-74
2022/04/30 23:45:05;;;;;;;119.75;109.88;;;;;;;13.70;57.53;95682.66;4972306;28;20106;-74
2022/04/30 23:47:32;;;;;;;112.13;102.82;;;;;;;13.94;57.40;95733.84;4973019;28;20114;-74
2022/04/30 23:49:57;;;;;;;91.70;80.25;;;;;;;14.01;57.79;95731.50;4972578;28;20027;-74
2022/04/30 23:52:26;;;;;;;1124.25;575.60;;;;;;;13.37;58.81;95704.41;4972786;28;20078;-74
2022/04/30 23:54:51;;;;;;;43.75;39.05;;;;;;;13.71;58.81;95722.44;4972764;28;20023;-74
2022/04/30 23:57:17;;;;;;;149.00;135.10;;;;;;;13.25;59.19;95698.81;4971559;28;20042;-75
2022/04/30 23:59:42;;;;;;;83.90;77.75;;;;;;;13.56;58.44;95690.00;4954828;28;20027;-74
